»·PEaware :: RNGR808 KNGP-KNGP

RNGR808 :: KNGP-KNGP

FLIGHT INFORMATION

Flight Status: Arrived
Operator: Unknown
More flights by this operator :: More flights under this callsign
Pilot: USN Avenger (31125)
Aircraft: BEECH AIRCRAFT T-6A TEXAN
(TEX2)
More flights by this aircraft type
Origin: KNGP Corpus Christi NAS/Truax
United States
Destination: KNGP Corpus Christi NAS/Truax
United States
More flights between these airports :: More routes between these airports
Route: , MUSTANG3, KNWL, SHAMROCK,
File this flight plan on PilotEdge
Remarks:
Altitude:
(Current/Filed)
14,500ft
Speed:
(Current/Filed)
240kts
Departed: 28-Nov-23 02:24 PM
Arrived: 28-Nov-23 03:11 PM
Distance/Time
Traveled:
0nm/0:47
Distance/Time
To Go:
Arrived

Flight Plot

Page will automatically refresh every two minutes.

Flight plan parsing failed; only flown route is shown


Map Options




Map Legend


Flown Route
Filed Route
Departure Airport
Arrival Airport
Navaid (VOR, NDB)
Fix

Horizontal Profiles

Position Reports

Time Latitude Longitude Heading Altitude Ground
Speed
28-Nov-23 14:21 27.685945 -97.288134 359 22ft 0kts
28-Nov-23 14:22 27.685946 -97.288134 359 22ft 0kts
28-Nov-23 14:23 27.693015 -97.288116 359 65ft 114kts
28-Nov-23 14:24 27.721488 -97.267907 82 2195ft 166kts
28-Nov-23 14:25 27.703300 -97.206172 116 2641ft 247kts
28-Nov-23 14:26 27.662394 -97.151495 195 2812ft 236kts
28-Nov-23 14:27 27.607029 -97.178853 198 5193ft 198kts
28-Nov-23 14:28 27.551367 -97.196778 197 7372ft 204kts
28-Nov-23 14:29 27.488272 -97.221435 201 7826ft 255kts
28-Nov-23 14:30 27.447277 -97.282823 259 6810ft 269kts
28-Nov-23 14:31 27.442368 -97.355266 285 5168ft 204kts
28-Nov-23 14:32 27.420590 -97.367978 60 1498ft 200kts
28-Nov-23 14:33 27.472231 -97.355343 11 1043ft 193kts
28-Nov-23 14:34 27.525444 -97.342908 14 1047ft 198kts
28-Nov-23 14:35 27.580140 -97.328094 14 1030ft 203kts
28-Nov-23 14:36 27.635379 -97.317754 359 1061ft 202kts
28-Nov-23 14:37 27.631507 -97.327406 171 851ft 118kts
28-Nov-23 14:38 27.625161 -97.315373 3 108ft 107kts
28-Nov-23 14:39 27.658048 -97.315034 347 611ft 133kts
28-Nov-23 14:40 27.635742 -97.326688 179 829ft 134kts
28-Nov-23 14:41 27.617711 -97.314803 350 211ft 125kts
28-Nov-23 14:42 27.650194 -97.315229 359 462ft 132kts
28-Nov-23 14:43 27.637337 -97.327216 177 799ft 119kts
28-Nov-23 14:44 27.612473 -97.315982 28 485ft 115kts
28-Nov-23 14:45 27.643041 -97.315279 0 244ft 129kts
28-Nov-23 14:46 27.637889 -97.326448 174 940ft 126kts
28-Nov-23 14:47 27.617896 -97.315240 355 280ft 116kts
28-Nov-23 14:48 27.648652 -97.315480 356 560ft 129kts
28-Nov-23 14:49 27.629702 -97.323281 174 953ft 168kts
28-Nov-23 14:50 27.581307 -97.297272 127 572ft 209kts
28-Nov-23 14:51 27.555651 -97.239339 107 524ft 205kts
28-Nov-23 14:52 27.599062 -97.200839 23 1028ft 246kts
28-Nov-23 14:53 27.658302 -97.162948 30 1073ft 245kts
28-Nov-23 14:54 27.705670 -97.131127 32 1187ft 243kts
28-Nov-23 14:55 27.740872 -97.127271 302 1016ft 219kts
28-Nov-23 14:56 27.758398 -97.186072 240 1265ft 190kts
28-Nov-23 14:57 27.708032 -97.214279 210 969ft 206kts
28-Nov-23 14:58 27.667709 -97.253967 256 1067ft 196kts
28-Nov-23 14:59 27.699478 -97.290843 1 1066ft 200kts
28-Nov-23 15:00 27.685382 -97.304623 169 811ft 111kts
28-Nov-23 15:01 27.681735 -97.288697 358 447ft 113kts
28-Nov-23 15:02 27.707993 -97.297346 223 824ft 104kts
28-Nov-23 15:03 27.676829 -97.299447 152 1035ft 105kts
28-Nov-23 15:04 27.696115 -97.288163 0 145ft 122kts
28-Nov-23 15:05 27.691018 -97.301913 187 966ft 120kts
28-Nov-23 15:06 27.679571 -97.288407 6 207ft 109kts
28-Nov-23 15:07 27.710918 -97.290827 303 778ft 133kts
28-Nov-23 15:08 27.679830 -97.302214 181 897ft 133kts
28-Nov-23 15:09 27.689429 -97.288088 0 23ft 77kts
28-Nov-23 15:10 27.698435 -97.287292 45 22ft 0kts

Navigation Log

Ident Type
Flight plan parsing failed, navigation log unavailable